Lexington, Michigan
Current Conditions -  °F | °C
As of 5:11 PM on Thursday 27 Nov 2014 (Local Time) from CYZR Reporting Station
Light Snow Light Snow  
Wind Chill: 16°   Ceiling: 2500
Heat Index: 28°   Visibility: 9mi
Dew Point: 21°   Wind: 17mph
Humidity: 74%   Direction: 310°NW
Pressure: 30.18"   Gusts: 24mph
Location:  43.27°N, 82.53°W
Report Text: CYZR 272211Z AUTO 31015G21KT 9SM -SN BKN025 OVC030 M02/M06 A3018 RMK SLP228
Loading
Personal Weather Stations






























Interactive Weather Map New forecast layout! Learn more

10-Day Weather Forecast

Advertisements
Track Severe Weather on mobile